Woodward, OK

3:42 PM CST on December 16, 2017 (GMT -0600)
West Woodward

Weather History for KWWR - March, 2013

Change the Weather History Date:

Sunday, March 17, 2013

  Actual Average (KGAG) Record (KGAG)
Temperature  
Mean Temperature 44 °F -  
Max Temperature 53 °F 62 °F 88 °F (1997)
Min Temperature 35 °F 34 °F 16 °F (1988)
Degree Days  
Heating Degree Days 21    
Moisture  
Dew Point 33 °F    
Average Humidity 75    
Maximum Humidity 93    
Minimum Humidity 51    
Precipitation  
Precipitation 0.00 in - - ()
Sea Level Pressure  
Sea Level Pressure 29.82 in    
Wind  
Wind Speed 10 mph (NE)    
Max Wind Speed 16 mph    
Max Gust Speed 22 mph    
Visibility 10 miles    
Events      
Averages and records for this station are not official NWS values.
T = Trace of Precipitation, MM = Missing Value Source: NWS Daily Summary

Daily Weather History Graph

Daily Weather History Graph

Search for Another Location

Airport or City:

Trip Planner

Search our weather history database for the weather conditions in past years. The results will help you decide how hot, cold, wet, or windy it might be!

Date:

Astronomy

Mar. 17, 2013 Rise Set
Actual Time 7:45 AM CDT 7:47 PM CDT
Civil Twilight 7:19 AM CDT 8:13 PM CDT
Nautical Twilight 6:50 AM CDT 8:43 PM CDT
Astronomical Twilight 6:19 AM CDT 9:13 PM CDT
Moon 11:08 AM CDT (3/17) 12:48 AM CDT (3/17)
Length of Visible Light 12h 53m
Length of Day
12h 01m
Waxing Crescent, 31% of the Moon is Illuminated
Mar 17
Waxing Crescent
Mar 19
First Quarter
Mar 27
Full
Apr 2
Last Quarter
Apr 10
New

Hourly Weather History & Observations

Time (CDT) Temp. Windchill Dew Point Humidity Pressure Visibility Wind Dir Wind Speed Gust Speed Precip Events Conditions
12:15 AM 41.0 °F 33.1 °F 32.0 °F 70% 29.97 in 10.0 mi North 15.0 mph - N/A   Mostly Cloudy
12:35 AM 39.2 °F 30.5 °F 32.0 °F 75% 29.97 in 10.0 mi NNE 16.1 mph 20.7 mph N/A   Scattered Clouds
12:55 AM 37.4 °F 28.5 °F 30.2 °F 75% 29.97 in 10.0 mi NNE 15.0 mph 21.9 mph N/A   Scattered Clouds
1:15 AM 37.4 °F 28.2 °F 30.2 °F 75% 29.95 in 10.0 mi NNE 16.1 mph - N/A   Clear
1:35 AM 37.4 °F 28.5 °F 30.2 °F 75% 29.95 in 10.0 mi North 15.0 mph 19.6 mph N/A   Clear
1:55 AM 37.4 °F 29.3 °F 30.2 °F 75% 29.94 in 10.0 mi NNE 12.7 mph - N/A   Clear
2:15 AM 35.6 °F 26.2 °F 30.2 °F 81% 29.93 in 10.0 mi NNE 15.0 mph - N/A   Clear
2:35 AM 35.6 °F 27.5 °F 30.2 °F 81% 29.95 in 10.0 mi North 11.5 mph - N/A   Mostly Cloudy
2:55 AM 35.6 °F 28.0 °F 30.2 °F 81% 29.94 in 10.0 mi NNE 10.4 mph - N/A   Mostly Cloudy
3:15 AM 35.6 °F 26.6 °F 30.2 °F 81% 29.93 in 10.0 mi NNE 13.8 mph - N/A   Scattered Clouds
3:35 AM 35.6 °F 26.6 °F 30.2 °F 81% 29.93 in 10.0 mi NNE 13.8 mph - N/A   Scattered Clouds
3:55 AM 35.6 °F 27.1 °F 30.2 °F 81% 29.93 in 10.0 mi NNE 12.7 mph - N/A   Mostly Cloudy
4:15 AM 35.6 °F 27.1 °F 30.2 °F 81% 29.93 in 10.0 mi NE 12.7 mph - N/A   Overcast
4:35 AM 35.6 °F 29.2 °F 30.2 °F 81% 29.94 in 10.0 mi North 8.1 mph - N/A   Overcast
4:55 AM 35.6 °F 29.2 °F 30.2 °F 81% 29.94 in 10.0 mi North 8.1 mph - N/A   Overcast
5:35 AM 35.6 °F 29.9 °F 30.2 °F 81% 29.94 in 10.0 mi NNE 6.9 mph - N/A   Overcast
5:55 AM 35.6 °F 29.2 °F 30.2 °F 81% 29.93 in 10.0 mi NNE 8.1 mph - N/A   Overcast
6:15 AM 35.6 °F 29.9 °F 30.2 °F 81% 29.94 in 10.0 mi NNE 6.9 mph - N/A   Overcast
6:35 AM 35.6 °F 29.2 °F 30.2 °F 81% 29.93 in 10.0 mi NNE 8.1 mph - N/A   Overcast
6:55 AM 35.6 °F 29.9 °F 30.2 °F 81% 29.93 in 10.0 mi NE 6.9 mph - N/A   Overcast
7:15 AM 35.6 °F 28.0 °F 30.2 °F 81% 29.91 in 10.0 mi NE 10.4 mph - N/A   Overcast
7:35 AM 35.6 °F 29.2 °F 30.2 °F 81% 29.91 in 10.0 mi NNE 8.1 mph - N/A   Mostly Cloudy
7:55 AM 35.6 °F 29.9 °F 30.2 °F 81% 29.91 in 10.0 mi NE 6.9 mph - N/A   Overcast
8:15 AM 35.6 °F 28.0 °F 30.2 °F 81% 29.91 in 10.0 mi NNE 10.4 mph - N/A   Overcast
8:35 AM 35.6 °F 28.6 °F 30.2 °F 81% 29.91 in 10.0 mi North 9.2 mph - N/A   Overcast
8:55 AM 35.6 °F 28.0 °F 30.2 °F 81% 29.91 in 10.0 mi North 10.4 mph - N/A   Overcast
9:15 AM 35.6 °F 28.0 °F 30.2 °F 81% 29.90 in 10.0 mi North 10.4 mph - N/A   Overcast
9:35 AM 35.6 °F 28.6 °F 30.2 °F 81% 29.91 in 10.0 mi North 9.2 mph - N/A   Overcast
9:55 AM 35.6 °F 28.0 °F 30.2 °F 81% 29.91 in 10.0 mi North 10.4 mph - N/A   Overcast
10:15 AM 35.6 °F 29.2 °F 30.2 °F 81% 29.92 in 10.0 mi North 8.1 mph - N/A   Overcast
10:35 AM 35.6 °F 29.9 °F 32.0 °F 87% 29.92 in 10.0 mi North 6.9 mph - N/A   Overcast
10:55 AM 35.6 °F 30.7 °F 32.0 °F 87% 29.92 in 10.0 mi NNE 5.8 mph - N/A   Overcast
11:15 AM 37.4 °F 34.9 °F 32.0 °F 81% 29.91 in 10.0 mi NNE 3.5 mph - N/A   Overcast
11:35 AM 37.4 °F 34.9 °F 32.0 °F 81% 29.91 in 10.0 mi NNE 3.5 mph - N/A   Overcast
11:55 AM 37.4 °F 33.8 °F 32.0 °F 81% 29.91 in 10.0 mi North 4.6 mph - N/A   Overcast
12:15 PM 37.4 °F 33.8 °F 32.0 °F 81% 29.89 in 10.0 mi North 4.6 mph - N/A   Overcast
12:35 PM 39.2 °F - 32.0 °F 75% 29.88 in 10.0 mi Calm Calm - N/A   Overcast
12:55 PM 39.2 °F - 32.0 °F 75% 29.87 in 10.0 mi Calm Calm - N/A   Overcast
1:15 PM 41.0 °F 38.0 °F 32.0 °F 70% 29.86 in 10.0 mi NNE 4.6 mph - N/A   Overcast
1:35 PM 41.0 °F - 32.0 °F 70% 29.85 in 10.0 mi Calm Calm - N/A   Overcast
1:55 PM 41.0 °F - 32.0 °F 70% 29.83 in 10.0 mi Calm Calm - N/A   Overcast
2:15 PM 42.8 °F - 32.0 °F 66% 29.81 in 10.0 mi Calm Calm - N/A   Overcast
2:35 PM 42.8 °F 40.1 °F 33.8 °F 70% 29.79 in 10.0 mi NNE 4.6 mph - N/A   Overcast
2:55 PM 44.6 °F - 33.8 °F 66% 29.77 in 10.0 mi Calm Calm - N/A   Overcast
3:15 PM 44.6 °F - 33.8 °F 66% 29.76 in 10.0 mi Calm Calm - N/A   Mostly Cloudy
3:35 PM 46.4 °F 45.2 °F 33.8 °F 62% 29.75 in 10.0 mi SE 3.5 mph - N/A   Scattered Clouds
3:55 PM 48.2 °F - 33.8 °F 58% 29.72 in 10.0 mi Calm Calm - N/A   Clear
4:15 PM 50.0 °F - 35.6 °F 58% 29.70 in 10.0 mi Calm Calm - N/A   Clear
4:35 PM 51.8 °F - 35.6 °F 54% 29.69 in 10.0 mi ESE 5.8 mph - N/A   Clear
4:55 PM 51.8 °F - 35.6 °F 54% 29.69 in 10.0 mi SSE 3.5 mph - N/A   Clear
5:15 PM 53.6 °F - 37.4 °F 54% 29.67 in 10.0 mi ESE 6.9 mph - N/A   Clear
5:35 PM 53.6 °F - 35.6 °F 51% 29.67 in 10.0 mi ESE 10.4 mph - N/A   Clear
5:55 PM 51.8 °F - 37.4 °F 58% 29.67 in 10.0 mi ESE 9.2 mph - N/A   Clear
6:15 PM 51.8 °F - 37.4 °F 58% 29.67 in 10.0 mi East 10.4 mph - N/A   Clear
6:35 PM 51.8 °F - 37.4 °F 58% 29.66 in 10.0 mi ESE 12.7 mph - N/A   Clear
6:55 PM 50.0 °F - 35.6 °F 58% 29.67 in 10.0 mi ESE 11.5 mph - N/A   Clear
7:15 PM 48.2 °F - 37.4 °F 66% 29.67 in 10.0 mi ESE 10.4 mph - N/A   Clear
7:35 PM 46.4 °F 41.5 °F 37.4 °F 71% 29.69 in 10.0 mi SE 10.4 mph - N/A   Clear
7:55 PM 46.4 °F 41.1 °F 37.4 °F 71% 29.67 in 10.0 mi ESE 11.5 mph - N/A   Clear
8:15 PM 46.4 °F 41.9 °F 37.4 °F 71% 29.69 in 10.0 mi ENE 9.2 mph - N/A   Clear
8:35 PM 44.6 °F 39.2 °F 35.6 °F 71% 29.70 in 10.0 mi ENE 10.4 mph - N/A   Clear
8:55 PM 42.8 °F 35.8 °F 35.6 °F 76% 29.69 in 10.0 mi East 13.8 mph - N/A   Clear
9:15 PM 42.8 °F 35.4 °F 35.6 °F 76% 29.67 in 10.0 mi ESE 15.0 mph - N/A   Clear
9:35 PM 41.0 °F 33.5 °F 35.6 °F 81% 29.67 in 10.0 mi ESE 13.8 mph - N/A   Clear
9:55 PM 41.0 °F 34.7 °F 35.6 °F 81% 29.68 in 10.0 mi East 10.4 mph 17.3 mph N/A   Clear
10:15 PM 41.0 °F 34.3 °F 35.6 °F 81% 29.67 in 10.0 mi ESE 11.5 mph - N/A   Clear
10:35 PM 39.2 °F 32.5 °F 35.6 °F 87% 29.67 in 10.0 mi ESE 10.4 mph - N/A   Clear
10:55 PM 39.2 °F 32.0 °F 33.8 °F 81% 29.66 in 10.0 mi ESE 11.5 mph - N/A   Clear
11:15 PM 37.4 °F 28.9 °F 35.6 °F 93% 29.65 in 10.0 mi ESE 13.8 mph - N/A   Clear
11:35 PM 37.4 °F 32.8 °F 35.6 °F 93% 29.66 in 10.0 mi ESE 5.8 mph - N/A   Clear
11:55 PM 37.4 °F 32.1 °F 35.6 °F 93% 29.65 in 10.0 mi ESE 6.9 mph - N/A   Clear